Time;durP1;ratioP1;P1;durP2;ratioP2;P2;SDS_P1;SDS_P2;PMS_P1;PMS_P2;Temp;Humidity;BMP_temperature;BMP_pressure;BME280_temperature;BME280_humidity;BME280_pressure;Samples;Min_cycle;Max_cycle;Signal;HPM_P1;HPM_P2
2020/12/19 00:01:35;;;;;;;37.58;20.65;;;7.30;87.90;;;;;;5092777;28;20036;-44
2020/12/19 00:04:00;;;;;;;35.80;22.30;;;7.20;87.70;;;;;;5076039;28;20065;-44
2020/12/19 00:06:27;;;;;;;42.55;24.33;;;7.40;87.00;;;;;;5058925;28;20125;-45
2020/12/19 00:08:53;;;;;;;38.92;21.42;;;7.40;87.20;;;;;;5092505;28;20040;-43
2020/12/19 00:11:19;;;;;;;34.00;20.10;;;7.40;86.50;;;;;;5092505;28;20139;-43
2020/12/19 00:13:45;;;;;;;38.65;21.45;;;7.20;86.90;;;;;;5092581;28;20119;-44
2020/12/19 00:16:15;;;;;;;38.10;22.33;;;7.30;87.20;;;;;;5092486;28;20157;-44
2020/12/19 00:18:41;;;;;;;37.28;21.83;;;7.10;87.30;;;;;;5092550;28;20036;-44
2020/12/19 00:21:07;;;;;;;36.63;21.92;;;7.10;87.80;;;;;;5092464;28;20036;-44
2020/12/19 00:23:32;;;;;;;41.30;25.13;;;7.20;87.50;;;;;;5058949;28;20066;-45
2020/12/19 00:25:58;;;;;;;41.53;25.10;;;7.30;87.10;;;;;;5092267;28;20040;-43
2020/12/19 00:28:24;;;;;;;41.50;24.20;;;7.30;87.30;;;;;;5092165;28;20056;-45
2020/12/19 00:30:49;;;;;;;40.28;24.98;;;7.30;87.20;;;;;;5073341;28;20459;-46
2020/12/19 00:33:15;;;;;;;41.47;25.25;;;7.40;87.10;;;;;;5094158;28;20040;-45
2020/12/19 00:35:41;;;;;;;47.20;26.98;;;7.40;87.00;;;;;;5094233;28;20046;-45
2020/12/19 00:38:06;;;;;;;51.40;28.17;;;7.40;86.30;;;;;;5094117;28;20040;-45
2020/12/19 00:40:32;;;;;;;54.30;31.30;;;7.30;87.10;;;;;;5109661;28;20040;-43
2020/12/19 00:42:58;;;;;;;53.83;31.10;;;7.30;87.10;;;;;;5094391;28;20040;-43
2020/12/19 00:45:24;;;;;;;44.40;28.33;;;7.20;87.50;;;;;;5093936;28;20032;-44
2020/12/19 00:47:49;;;;;;;45.40;27.63;;;7.40;87.80;;;;;;5092338;28;20032;-45
2020/12/19 00:50:15;;;;;;;53.28;31.90;;;7.50;87.80;;;;;;5094108;28;20426;-44
2020/12/19 00:52:41;;;;;;;53.78;32.38;;;7.50;87.00;;;;;;5094046;28;20080;-44
2020/12/19 00:55:07;;;;;;;50.83;30.92;;;7.60;86.20;;;;;;5094140;28;20597;-45
2020/12/19 00:57:34;;;;;;;53.72;32.80;;;7.80;85.60;;;;;;5093939;28;20111;-44
2020/12/19 01:00:00;;;;;;;44.13;29.63;;;7.70;85.50;;;;;;5093874;28;20489;-44
2020/12/19 01:02:27;;;;;;;53.03;31.00;;;7.70;85.30;;;;;;5108998;28;20044;-44
2020/12/19 01:04:53;;;;;;;53.40;31.27;;;7.70;85.60;;;;;;5093976;28;20115;-45
2020/12/19 01:07:18;;;;;;;52.95;31.33;;;7.70;85.60;;;;;;5093690;28;20122;-44
2020/12/19 01:09:44;;;;;;;55.10;32.80;;;7.70;85.20;;;;;;5091732;28;20044;-46
2020/12/19 01:12:10;;;;;;;56.10;32.75;;;7.60;85.60;;;;;;5093242;28;20365;-44
2020/12/19 01:14:35;;;;;;;47.75;28.10;;;7.50;87.00;;;;;;5093677;28;20036;-45
2020/12/19 01:17:05;;;;;;;47.38;29.48;;;7.50;86.40;;;;;;5093664;28;20036;-45
2020/12/19 01:19:31;;;;;;;49.17;29.42;;;7.60;86.30;;;;;;5108673;28;20115;-45
2020/12/19 01:21:57;;;;;;;44.13;28.10;;;7.60;86.00;;;;;;5093604;28;20442;-45
2020/12/19 01:24:23;;;;;;;42.38;26.20;;;7.70;85.80;;;;;;5093498;28;20465;-44
2020/12/19 01:26:48;;;;;;;45.55;26.42;;;7.70;85.70;;;;;;5093619;28;20126;-45
2020/12/19 01:29:15;;;;;;;43.28;26.10;;;7.70;85.60;;;;;;5093510;28;20150;-46
2020/12/19 01:31:41;;;;;;;40.80;26.70;;;7.80;84.90;;;;;;5093464;28;20024;-47
2020/12/19 01:34:07;;;;;;;40.50;24.95;;;7.80;84.80;;;;;;5093351;28;20400;-46
2020/12/19 01:36:33;;;;;;;38.92;24.00;;;7.80;84.40;;;;;;5093398;28;20025;-45
2020/12/19 01:38:58;;;;;;;40.33;22.60;;;7.60;85.20;;;;;;5093341;28;20032;-45
2020/12/19 01:41:24;;;;;;;43.15;25.90;;;7.60;85.20;;;;;;5093398;28;20084;-47
2020/12/19 01:43:57;;;;;;;40.67;27.17;;;7.70;85.40;;;;;;5093187;28;20047;-44
2020/12/19 01:46:31;;;;;;;49.45;28.85;;;7.70;85.10;;;;;;5093268;28;20047;-44
2020/12/19 01:48:58;;;;;;;47.90;28.08;;;7.80;84.70;;;;;;5093457;28;20024;-46
2020/12/19 01:51:26;;;;;;;51.35;29.60;;;7.80;84.60;;;;;;5093288;28;20105;-46
2020/12/19 01:53:53;;;;;;;50.22;29.45;;;7.90;84.60;;;;;;5091397;28;20197;-46
2020/12/19 01:56:39;;;;;;;47.75;26.80;;;7.80;84.20;;;;;;5093302;28;20482;-45
2020/12/19 01:59:08;;;;;;;47.58;29.83;;;7.90;84.30;;;;;;5093343;28;20024;-44
2020/12/19 02:01:45;;;;;;;45.08;29.40;;;7.90;84.40;;;;;;5093302;28;20033;-46
2020/12/19 02:04:11;;;;;;;51.47;28.85;;;7.70;86.30;;;;;;5093187;28;20028;-44
2020/12/19 02:06:37;;;;;;;45.33;26.98;;;7.70;85.10;;;;;;5092970;28;20047;-46
2020/12/19 02:09:03;;;;;;;50.72;29.00;;;7.80;85.10;;;;;;5093198;28;20114;-46
2020/12/19 02:11:29;;;;;;;44.33;26.15;;;7.90;85.30;;;;;;5093106;28;20036;-45
2020/12/19 02:13:55;;;;;;;44.38;26.20;;;7.80;84.90;;;;;;5093037;28;20086;-46
2020/12/19 02:16:21;;;;;;;44.22;25.40;;;7.90;85.00;;;;;;5090897;28;20044;-44
2020/12/19 02:18:47;;;;;;;40.47;25.08;;;7.80;84.50;;;;;;5091007;28;20050;-46
2020/12/19 02:21:13;;;;;;;46.05;26.98;;;7.80;84.60;;;;;;5091004;28;20040;-44
2020/12/19 02:23:38;;;;;;;45.70;27.85;;;7.80;84.50;;;;;;5094926;28;20115;-46
2020/12/19 02:26:04;;;;;;;55.45;31.08;;;7.80;84.70;;;;;;5094600;28;20470;-46
2020/12/19 02:28:30;;;;;;;57.25;32.22;;;7.80;84.40;;;;;;5094586;28;20409;-46
2020/12/19 02:30:56;;;;;;;54.28;30.70;;;7.80;84.70;;;;;;5094614;28;20075;-46
2020/12/19 02:33:21;;;;;;;55.05;29.70;;;7.90;84.60;;;;;;5094455;28;20460;-45
2020/12/19 02:35:47;;;;;;;52.00;29.65;;;7.80;84.60;;;;;;5094317;28;20032;-46
2020/12/19 02:38:13;;;;;;;53.78;33.05;;;7.70;84.90;;;;;;5094680;28;20451;-45
2020/12/19 02:40:38;;;;;;;52.65;30.90;;;7.70;84.70;;;;;;5060754;28;20128;-44
2020/12/19 02:43:04;;;;;;;54.58;31.15;;;7.70;84.70;;;;;;5094140;28;20523;-45
2020/12/19 02:45:30;;;;;;;61.00;33.17;;;7.70;85.00;;;;;;5061003;28;20084;-44
2020/12/19 02:47:56;;;;;;;61.20;33.85;;;7.70;85.40;;;;;;5095625;28;20043;-46
2020/12/19 02:50:21;;;;;;;59.25;30.70;;;7.70;85.40;;;;;;5096401;28;20523;-43
2020/12/19 02:52:47;;;;;;;45.28;27.15;;;7.80;85.20;;;;;;5094303;28;20039;-44
2020/12/19 02:55:13;;;;;;;58.13;29.60;;;7.80;85.20;;;;;;5096285;28;20046;-44
2020/12/19 02:57:39;;;;;;;53.28;27.92;;;7.80;84.90;;;;;;5096132;28;20024;-44
2020/12/19 03:00:06;;;;;;;44.30;25.48;;;7.80;84.60;;;;;;5096394;28;20032;-46
2020/12/19 03:02:32;;;;;;;42.22;24.10;;;7.60;85.00;;;;;;5111337;28;20072;-46
2020/12/19 03:04:58;;;;;;;41.40;22.88;;;7.50;85.70;;;;;;5096086;28;20036;-46
2020/12/19 03:07:23;;;;;;;42.50;23.27;;;7.40;86.00;;;;;;5094016;28;20052;-43
2020/12/19 03:09:49;;;;;;;41.35;24.35;;;7.50;86.30;;;;;;5095920;28;20036;-44
2020/12/19 03:12:15;;;;;;;42.83;26.45;;;7.60;86.20;;;;;;5094952;28;20130;-43
2020/12/19 03:14:41;;;;;;;43.70;24.98;;;7.50;86.50;;;;;;5096032;28;20028;-44
2020/12/19 03:17:06;;;;;;;42.10;26.50;;;7.60;86.10;;;;;;5095654;28;20042;-47
2020/12/19 03:19:32;;;;;;;48.88;29.40;;;7.70;85.70;;;;;;5095690;28;20503;-43
2020/12/19 03:21:58;;;;;;;53.00;27.95;;;7.60;85.60;;;;;;5060434;28;20090;-45
2020/12/19 03:24:23;;;;;;;48.28;28.77;;;7.60;86.30;;;;;;5095772;28;20032;-43
2020/12/19 03:26:49;;;;;;;46.20;27.45;;;7.70;85.90;;;;;;5095464;28;20047;-43
2020/12/19 03:29:15;;;;;;;43.17;23.40;;;7.70;85.80;;;;;;5093645;28;20055;-45
2020/12/19 03:31:41;;;;;;;37.47;21.85;;;7.40;86.00;;;;;;5110898;28;20032;-45
2020/12/19 03:34:06;;;;;;;41.00;22.63;;;7.20;87.40;;;;;;5094789;28;20039;-43
2020/12/19 03:36:32;;;;;;;41.80;22.02;;;7.10;88.20;;;;;;5095499;28;20039;-45
2020/12/19 03:38:58;;;;;;;49.60;25.60;;;7.10;88.30;;;;;;5095452;28;20077;-43
2020/12/19 03:41:24;;;;;;;46.67;25.88;;;7.10;88.20;;;;;;5095272;28;20028;-44
2020/12/19 03:43:50;;;;;;;43.40;23.27;;;7.10;88.50;;;;;;5095325;28;20482;-42
2020/12/19 03:46:16;;;;;;;42.95;23.73;;;6.90;89.00;;;;;;5095147;28;20128;-43
2020/12/19 03:48:42;;;;;;;47.05;25.13;;;7.00;89.10;;;;;;5110313;28;20032;-43
2020/12/19 03:51:08;;;;;;;43.63;22.73;;;7.00;89.10;;;;;;5077050;28;20430;-44
2020/12/19 03:53:34;;;;;;;40.38;23.00;;;7.10;88.70;;;;;;5094999;28;20043;-45
2020/12/19 03:56:00;;;;;;;42.20;22.92;;;7.10;89.10;;;;;;5095095;28;20028;-44
2020/12/19 03:58:26;;;;;;;39.80;24.60;;;7.20;88.30;;;;;;5095010;28;20115;-43
2020/12/19 04:00:51;;;;;;;44.40;26.17;;;7.10;87.90;;;;;;5110234;28;20040;-44
2020/12/19 04:03:17;;;;;;;46.38;25.05;;;7.00;88.40;;;;;;5093128;28;20047;-43
2020/12/19 04:05:43;;;;;;;48.53;26.52;;;6.80;89.10;;;;;;5092954;28;20044;-43
2020/12/19 04:08:09;;;;;;;47.33;27.15;;;6.60;90.30;;;;;;5094643;28;20057;-46
2020/12/19 04:10:35;;;;;;;45.70;25.58;;;6.80;89.90;;;;;;5095118;28;20036;-46
2020/12/19 04:13:01;;;;;;;44.45;24.85;;;6.70;89.70;;;;;;5094563;28;20036;-44
2020/12/19 04:15:27;;;;;;;48.38;26.38;;;6.90;89.50;;;;;;5094949;28;20032;-45
2020/12/19 04:17:53;;;;;;;48.45;26.52;;;6.90;89.20;;;;;;5094603;28;20043;-44
2020/12/19 04:20:19;;;;;;;51.25;27.73;;;6.90;89.40;;;;;;5094493;28;20468;-45
2020/12/19 04:22:45;;;;;;;46.55;26.77;;;6.80;89.00;;;;;;5094702;28;20034;-45
2020/12/19 04:25:11;;;;;;;47.10;26.33;;;6.90;88.80;;;;;;5094380;28;20547;-43
2020/12/19 04:27:38;;;;;;;43.95;25.88;;;6.80;88.80;;;;;;5094322;28;20044;-45
2020/12/19 04:30:08;;;;;;;48.67;27.33;;;6.90;88.90;;;;;;5094420;28;20394;-45
2020/12/19 04:32:35;;;;;;;51.58;27.70;;;6.80;88.80;;;;;;5094326;28;20024;-45
2020/12/19 04:35:01;;;;;;;46.53;26.85;;;6.80;89.30;;;;;;5094217;28;20035;-43
2020/12/19 04:37:27;;;;;;;49.40;28.50;;;6.70;89.30;;;;;;5094157;28;20062;-44
2020/12/19 04:39:53;;;;;;;46.90;28.10;;;6.80;89.20;;;;;;5057258;28;20032;-43
2020/12/19 04:42:22;;;;;;;47.47;26.35;;;6.90;89.70;;;;;;5093021;28;20038;-44
2020/12/19 04:44:49;;;;;;;43.63;27.25;;;6.90;89.30;;;;;;5093120;28;20125;-44
2020/12/19 04:47:15;;;;;;;48.15;29.13;;;6.90;89.00;;;;;;5092819;28;20039;-43
2020/12/19 04:49:44;;;;;;;48.97;28.65;;;6.90;88.90;;;;;;5107801;28;20047;-43
2020/12/19 04:52:10;;;;;;;44.13;27.08;;;7.00;88.90;;;;;;5092644;28;20024;-43
2020/12/19 04:54:36;;;;;;;42.75;25.83;;;7.20;88.20;;;;;;5107742;28;20043;-45
2020/12/19 04:57:03;;;;;;;43.13;26.50;;;7.50;91.90;;;;;;5092801;28;20031;-44
2020/12/19 04:59:29;;;;;;;41.25;25.13;;;7.30;87.80;;;;;;5092790;28;20605;-44
2020/12/19 05:01:55;;;;;;;43.95;24.67;;;7.30;87.30;;;;;;5092742;28;20107;-45
2020/12/19 05:04:21;;;;;;;45.00;26.17;;;7.30;87.50;;;;;;5092529;28;20498;-45
2020/12/19 05:06:47;;;;;;;41.83;26.08;;;7.10;87.50;;;;;;5092582;28;20032;-43
2020/12/19 05:09:13;;;;;;;44.50;26.05;;;7.10;87.90;;;;;;5092554;28;20028;-44
2020/12/19 05:11:38;;;;;;;39.58;24.80;;;7.10;87.50;;;;;;5090072;28;20454;-45
2020/12/19 05:14:05;;;;;;;40.30;24.48;;;7.10;86.80;;;;;;5091690;28;20024;-43
2020/12/19 05:16:32;;;;;;;39.42;24.08;;;7.10;88.00;;;;;;5090677;28;20043;-44
2020/12/19 05:19:06;;;;;;;39.80;23.20;;;7.10;87.30;;;;;;5091822;28;20036;-45
2020/12/19 05:21:32;;;;;;;40.22;24.80;;;7.30;87.20;;;;;;5090807;28;20048;-44
2020/12/19 05:23:58;;;;;;;39.83;24.52;;;7.10;87.00;;;;;;5092456;28;20036;-45
2020/12/19 05:26:24;;;;;;;37.97;23.83;;;7.20;87.40;;;;;;5091948;28;20058;-45
2020/12/19 05:28:50;;;;;;;40.00;24.98;;;7.40;86.80;;;;;;5090043;28;20048;-45
2020/12/19 05:31:16;;;;;;;41.60;25.33;;;7.10;87.30;;;;;;5092075;28;20517;-44
2020/12/19 05:33:43;;;;;;;38.00;24.08;;;7.00;88.50;;;;;;5089968;28;20055;-45
2020/12/19 05:36:21;;;;;;;45.22;24.85;;;7.10;87.90;;;;;;5092152;28;20081;-43
2020/12/19 05:38:48;;;;;;;47.85;30.63;;;6.70;88.20;;;;;;5092258;28;20084;-44
2020/12/19 05:41:14;;;;;;;47.72;30.55;;;6.40;89.70;;;;;;5090046;28;20111;-44
2020/12/19 05:43:53;;;;;;;54.60;38.53;;;6.20;90.30;;;;;;5091970;28;20028;-45
2020/12/19 05:46:36;;;;;;;43.30;27.13;;;5.90;91.00;;;;;;5089885;28;20511;-48
2020/12/19 05:49:05;;;;;;;51.70;29.50;;;5.80;91.40;;;;;;5092246;28;20025;-45
2020/12/19 05:51:33;;;;;;;43.15;25.92;;;5.60;92.00;;;;;;5092175;28;20039;-43
2020/12/19 05:54:04;;;;;;;48.97;28.45;;;5.50;92.30;;;;;;5107678;28;20070;-43
2020/12/19 05:56:43;;;;;;;46.70;27.43;;;5.60;92.50;;;;;;5108211;28;20063;-43
2020/12/19 05:59:15;;;;;;;48.17;28.25;;;5.80;92.10;;;;;;5111738;28;20584;-45
2020/12/19 06:01:43;;;;;;;47.72;28.42;;;5.90;91.90;;;;;;5111333;28;20117;-44
2020/12/19 06:04:09;;;;;;;51.15;29.48;;;6.10;91.90;;;;;;5095940;28;20032;-45
2020/12/19 06:06:40;;;;;;;49.20;30.17;;;6.40;90.70;;;;;;5095815;28;20074;-43
2020/12/19 06:09:07;;;;;;;48.88;30.17;;;6.50;90.50;;;;;;5096078;28;20047;-45
2020/12/19 06:11:48;;;;;;;48.75;30.95;;;6.50;90.20;;;;;;5095738;28;20020;-44
2020/12/19 06:14:18;;;;;;;44.95;28.48;;;6.40;90.30;;;;;;5095871;28;20110;-44
2020/12/19 06:16:45;;;;;;;47.42;28.17;;;6.60;90.30;;;;;;5095699;28;20026;-45
2020/12/19 06:19:14;;;;;;;45.08;27.92;;;6.70;89.80;;;;;;5095769;28;20430;-45
2020/12/19 06:21:47;;;;;;;45.22;27.65;;;6.80;89.40;;;;;;5095549;28;20119;-45
2020/12/19 06:24:42;;;;;;;50.22;27.80;;;6.70;89.10;;;;;;5095571;28;20028;-43
2020/12/19 06:27:38;;;;;;;48.15;28.42;;;6.70;89.40;;;;;;5095552;28;20032;-44
2020/12/19 06:30:04;;;;;;;43.17;27.17;;;6.80;89.40;;;;;;5095619;28;20044;-43
2020/12/19 06:32:31;;;;;;;47.00;30.13;;;6.70;89.50;;;;;;5095481;28;20094;-46
2020/12/19 06:35:15;;;;;;;48.88;30.98;;;6.90;89.20;;;;;;5110337;28;20036;-45
2020/12/19 06:37:44;;;;;;;54.85;30.63;;;6.60;88.80;;;;;;5095281;28;20020;-43
2020/12/19 06:40:20;;;;;;;56.10;34.10;;;6.40;90.20;;;;;;5095378;28;20471;-44
2020/12/19 06:43:06;;;;;;;60.95;34.38;;;6.20;90.50;;;;;;5094152;28;20032;-44
2020/12/19 06:45:32;;;;;;;55.95;33.50;;;6.10;91.10;;;;;;5093352;28;20491;-45
2020/12/19 06:47:58;;;;;;;49.53;30.48;;;6.40;90.90;;;;;;5095281;28;20036;-45
2020/12/19 06:50:25;;;;;;;53.40;32.35;;;6.60;90.50;;;;;;5059022;28;20032;-43
2020/12/19 06:52:56;;;;;;;60.50;33.50;;;6.80;90.10;;;;;;5094028;28;20016;-45
2020/12/19 06:55:27;;;;;;;48.22;30.50;;;7.00;88.60;;;;;;5095278;28;20028;-44
2020/12/19 06:57:57;;;;;;;48.47;28.75;;;6.80;88.60;;;;;;5095069;28;20511;-45
2020/12/19 07:00:30;;;;;;;48.95;29.52;;;6.50;89.50;;;;;;5094925;28;20035;-45
2020/12/19 07:02:59;;;;;;;49.75;29.00;;;6.20;90.70;;;;;;5077990;28;20043;-44
2020/12/19 07:05:27;;;;;;;59.80;34.72;;;6.50;90.50;;;;;;5094805;28;20024;-44
2020/12/19 07:08:13;;;;;;;58.65;33.65;;;6.20;90.40;;;;;;5094125;28;20032;-45
2020/12/19 07:10:39;;;;;;;66.65;37.55;;;6.10;91.00;;;;;;5092546;28;20040;-44
2020/12/19 07:13:04;;;;;;;116.88;61.22;;;6.40;91.00;;;;;;5094715;28;20430;-43
2020/12/19 07:16:00;;;;;;;82.60;48.92;;;6.20;91.00;;;;;;5094533;28;20070;-43
2020/12/19 07:18:25;;;;;;;74.95;41.85;;;6.40;90.80;;;;;;5051965;28;20029;-43
2020/12/19 07:21:01;;;;;;;60.78;35.42;;;6.70;90.60;;;;;;5052026;28;20051;-45
2020/12/19 07:23:28;;;;;;;66.28;37.95;;;6.70;89.80;;;;;;5053129;28;20461;-44
2020/12/19 07:25:53;;;;;;;68.63;36.53;;;6.90;89.20;;;;;;5053223;28;20043;-45
2020/12/19 07:28:19;;;;;;;68.45;38.30;;;6.80;89.60;;;;;;5053038;28;20053;-45
2020/12/19 07:30:45;;;;;;;58.97;34.15;;;6.60;90.00;;;;;;5003633;28;20037;-45
2020/12/19 07:33:11;;;;;;;62.15;34.55;;;6.30;90.30;;;;;;5053088;28;20029;-45
2020/12/19 07:35:37;;;;;;;55.25;34.08;;;6.40;90.90;;;;;;5052613;28;20047;-45
2020/12/19 07:38:04;;;;;;;52.67;33.05;;;6.60;90.60;;;;;;5051779;28;20028;-45
2020/12/19 07:40:30;;;;;;;50.15;30.75;;;6.70;90.30;;;;;;5051864;28;20033;-43
2020/12/19 07:43:13;;;;;;;50.88;31.35;;;6.90;88.70;;;;;;5051962;28;20039;-44
2020/12/19 07:45:39;;;;;;;59.90;34.28;;;6.60;89.30;;;;;;5032648;28;20034;-44
2020/12/19 07:48:05;;;;;;;61.85;36.17;;;6.20;90.50;;;;;;5002484;28;20036;-43
2020/12/19 07:50:33;;;;;;;54.38;32.95;;;6.00;91.30;;;;;;5051634;28;20029;-44
2020/12/19 07:53:07;;;;;;;57.70;35.80;;;6.30;90.60;;;;;;5051472;28;20464;-44
2020/12/19 07:55:36;;;;;;;64.18;38.67;;;6.50;90.70;;;;;;5082079;28;20036;-46
2020/12/19 07:58:03;;;;;;;66.03;38.55;;;6.60;90.20;;;;;;5091839;28;20035;-45
2020/12/19 08:00:30;;;;;;;60.92;36.30;;;6.70;89.60;;;;;;5093194;28;20059;-43
2020/12/19 08:02:55;;;;;;;59.67;36.30;;;6.50;89.40;;;;;;5093368;28;20047;-45
2020/12/19 08:05:22;;;;;;;58.10;37.13;;;6.50;90.20;;;;;;5089992;28;20494;-46
2020/12/19 08:07:54;;;;;;;57.67;36.17;;;6.50;90.00;;;;;;5092455;28;20047;-44
2020/12/19 08:10:21;;;;;;;61.42;38.42;;;6.70;90.20;;;;;;5088612;28;20020;-44
2020/12/19 08:12:47;;;;;;;69.47;41.20;;;7.00;88.80;;;;;;5092424;28;20441;-46
2020/12/19 08:15:17;;;;;;;56.42;38.92;;;6.90;89.20;;;;;;5093979;28;20020;-45
2020/12/19 08:18:04;;;;;;;68.65;42.00;;;7.00;88.00;;;;;;5094447;28;20028;-45
2020/12/19 08:20:38;;;;;;;56.38;34.88;;;6.80;88.40;;;;;;5094125;28;20036;-45
2020/12/19 08:23:08;;;;;;;50.10;32.15;;;6.80;88.50;;;;;;5094475;28;20052;-46
2020/12/19 08:25:35;;;;;;;54.38;35.97;;;6.80;88.60;;;;;;5094399;28;20024;-46
2020/12/19 08:28:01;;;;;;;61.88;36.42;;;6.90;89.10;;;;;;5094267;28;20047;-44
2020/12/19 08:30:28;;;;;;;62.10;38.78;;;7.10;87.30;;;;;;5094318;28;20028;-44
2020/12/19 08:32:58;;;;;;;66.78;39.75;;;7.20;90.70;;;;;;5094422;28;20471;-45
2020/12/19 08:35:30;;;;;;;55.22;34.10;;;6.90;88.00;;;;;;5109433;28;20495;-44
2020/12/19 08:38:13;;;;;;;54.80;33.17;;;6.80;86.80;;;;;;5094528;28;20497;-44
2020/12/19 08:40:43;;;;;;;60.83;37.15;;;6.80;88.70;;;;;;5094162;28;20067;-46
2020/12/19 08:43:11;;;;;;;66.45;43.10;;;7.00;87.60;;;;;;5094247;28;20047;-44
2020/12/19 08:45:39;;;;;;;60.28;41.28;;;7.20;87.50;;;;;;5109379;28;20395;-45
2020/12/19 08:48:25;;;;;;;51.92;36.08;;;7.30;86.10;;;;;;5094317;28;20031;-44
2020/12/19 08:50:52;;;;;;;55.10;36.65;;;7.40;86.60;;;;;;5092272;28;20040;-47
2020/12/19 08:53:21;;;;;;;54.35;37.65;;;7.50;86.50;;;;;;5109353;28;20028;-44
2020/12/19 08:55:48;;;;;;;62.90;37.72;;;7.60;85.20;;;;;;5093883;28;20103;-44
2020/12/19 08:58:28;;;;;;;57.15;37.90;;;7.60;84.40;;;;;;5093908;28;20047;-48
2020/12/19 09:00:55;;;;;;;57.53;37.67;;;7.70;84.80;;;;;;5094072;28;20016;-46
2020/12/19 09:03:31;;;;;;;54.60;37.53;;;7.80;93.70;;;;;;5093781;28;20024;-45
2020/12/19 09:06:04;;;;;;;50.38;30.02;;;7.70;93.60;;;;;;5093742;28;20051;-44
2020/12/19 09:08:34;;;;;;;48.75;31.55;;;7.60;92.80;;;;;;5093708;28;20027;-44
2020/12/19 09:11:00;;;;;;;50.30;34.00;;;7.60;93.00;;;;;;5088486;28;20121;-44
2020/12/19 09:13:26;;;;;;;56.03;36.72;;;7.60;93.10;;;;;;5091382;28;20020;-44
2020/12/19 09:15:57;;;;;;;63.05;39.35;;;7.50;93.50;;;;;;5093036;28;20031;-44
2020/12/19 09:18:31;;;;;;;54.88;36.80;;;7.60;93.00;;;;;;5091228;28;20024;-45
2020/12/19 09:20:59;;;;;;;48.92;32.65;;;7.80;93.30;;;;;;5083086;28;20435;-46
2020/12/19 09:23:26;;;;;;;46.47;30.67;;;7.70;92.90;;;;;;5083672;28;20036;-44
2020/12/19 09:25:53;;;;;;;51.15;33.83;;;7.90;89.20;;;;;;5050592;28;20484;-46
2020/12/19 09:28:20;;;;;;;44.58;29.25;;;7.80;83.90;;;;;;5064449;28;20060;-46
2020/12/19 09:30:46;;;;;;;40.80;28.45;;;7.60;83.20;;;;;;5070458;28;20063;-44
2020/12/19 09:33:12;;;;;;;45.95;31.23;;;7.60;84.30;;;;;;5070136;28;20460;-45
2020/12/19 09:35:38;;;;;;;45.10;29.67;;;7.60;83.80;;;;;;5036907;28;20041;-44
2020/12/19 09:38:04;;;;;;;45.13;30.35;;;7.70;83.30;;;;;;5053147;28;20038;-45
2020/12/19 09:40:31;;;;;;;45.70;29.77;;;7.80;83.90;;;;;;5070625;28;20045;-44
2020/12/19 09:42:57;;;;;;;45.65;30.92;;;7.60;82.80;;;;;;5010715;28;20045;-44
2020/12/19 09:45:23;;;;;;;48.85;31.30;;;7.40;83.70;;;;;;5010889;28;20030;-44
2020/12/19 09:47:52;;;;;;;58.08;39.22;;;7.20;85.40;;;;;;5010793;28;20041;-44
2020/12/19 09:50:18;;;;;;;47.80;32.08;;;7.40;84.80;;;;;;5008325;28;20034;-46
2020/12/19 09:52:44;;;;;;;45.45;31.13;;;7.50;85.10;;;;;;5010687;28;20042;-44
2020/12/19 09:55:10;;;;;;;37.13;28.27;;;7.70;93.70;;;;;;5010714;28;20033;-46
2020/12/19 09:57:36;;;;;;;48.85;30.08;;;7.60;93.70;;;;;;5009542;28;20103;-46
2020/12/19 10:00:04;;;;;;;39.95;26.92;;;7.50;94.30;;;;;;5009565;28;20498;-44
2020/12/19 10:02:30;;;;;;;43.63;29.95;;;7.70;94.00;;;;;;5018073;28;20029;-46
2020/12/19 10:04:56;;;;;;;38.33;25.77;;;7.70;93.50;;;;;;5030498;28;20072;-43
2020/12/19 10:07:21;;;;;;;35.75;24.08;;;7.70;93.70;;;;;;5030776;28;20468;-44
2020/12/19 10:09:47;;;;;;;37.47;26.13;;;7.60;82.00;;;;;;5030990;28;20034;-48
2020/12/19 10:12:13;;;;;;;37.05;26.20;;;7.50;83.10;;;;;;5030644;28;20121;-46
2020/12/19 10:14:38;;;;;;;34.10;23.02;;;7.40;84.10;;;;;;5080165;28;20047;-46
2020/12/19 10:17:04;;;;;;;36.28;24.67;;;7.40;84.10;;;;;;5097643;28;20036;-46
2020/12/19 10:19:30;;;;;;;34.13;24.95;;;7.50;90.70;;;;;;5100107;28;20417;-47
2020/12/19 10:21:56;;;;;;;35.00;24.08;;;7.50;90.30;;;;;;5090006;28;20024;-43
2020/12/19 10:24:23;;;;;;;28.52;20.98;;;7.50;87.40;;;;;;5054812;28;20518;-43
2020/12/19 10:26:49;;;;;;;33.03;22.75;;;7.50;87.30;;;;;;5109528;28;20476;-47
2020/12/19 10:29:15;;;;;;;31.58;22.63;;;7.60;90.00;;;;;;5095397;28;20048;-45
2020/12/19 10:31:41;;;;;;;31.70;22.05;;;7.60;93.50;;;;;;5091760;28;20020;-50
2020/12/19 10:34:07;;;;;;;33.97;24.25;;;7.50;93.60;;;;;;5091682;28;20029;-51
2020/12/19 10:36:33;;;;;;;36.22;24.20;;;7.60;93.80;;;;;;5091570;28;20379;-54
2020/12/19 10:38:59;;;;;;;40.45;26.60;;;7.70;93.60;;;;;;5091732;28;20028;-52
2020/12/19 10:41:25;;;;;;;32.13;23.25;;;7.60;93.30;;;;;;5091587;28;20698;-51
2020/12/19 10:43:51;;;;;;;29.05;20.92;;;7.70;92.70;;;;;;5093153;28;20085;-48
2020/12/19 10:46:23;;;;;;;33.60;22.38;;;7.60;92.50;;;;;;5094509;28;20036;-53
2020/12/19 10:48:49;;;;;;;35.67;24.02;;;7.60;92.60;;;;;;5094367;28;20085;-51
2020/12/19 10:51:15;;;;;;;35.03;24.17;;;7.40;93.00;;;;;;5094473;28;20020;-46
2020/12/19 10:53:42;;;;;;;36.70;24.75;;;;;;;;;;5094556;28;20028;-54
2020/12/19 10:56:08;;;;;;;33.67;24.15;;;;;;;;;;5094514;28;20537;-49
2020/12/19 10:58:34;;;;;;;34.13;23.70;;;7.10;80.70;;;;;;5091469;28;20024;-54
2020/12/19 11:01:00;;;;;;;34.80;24.08;;;7.30;80.90;;;;;;5108958;28;20082;-50
2020/12/19 11:03:25;;;;;;;35.70;25.00;;;7.10;81.80;;;;;;5094254;28;20028;-49
2020/12/19 11:05:51;;;;;;;37.58;24.13;;;7.10;82.10;;;;;;5094133;28;20406;-53
2020/12/19 11:08:17;;;;;;;35.92;25.50;;;7.00;91.70;;;;;;5093969;28;20039;-52
2020/12/19 11:10:43;;;;;;;36.63;26.52;;;7.20;91.30;;;;;;5089373;28;20036;-56
2020/12/19 11:13:08;;;;;;;41.60;29.50;;;7.10;91.30;;;;;;5092085;28;20024;-53
2020/12/19 11:15:34;;;;;;;43.88;30.08;;;7.10;90.70;;;;;;5093960;28;20349;-49
2020/12/19 11:18:00;;;;;;;43.15;30.27;;;7.30;90.00;;;;;;5093904;28;20032;-49
2020/12/19 11:20:26;;;;;;;37.45;26.23;;;7.40;90.80;;;;;;5091777;28;20032;-51
2020/12/19 11:22:51;;;;;;;37.38;25.95;;;7.30;91.50;;;;;;5093801;28;20028;-49
2020/12/19 11:25:17;;;;;;;40.95;27.45;;;7.40;92.20;;;;;;5093777;28;20039;-50
2020/12/19 11:27:43;;;;;;;40.55;29.25;;;7.50;80.20;;;;;;5093373;28;20032;-55
2020/12/19 11:30:09;;;;;;;38.70;27.67;;;7.50;79.70;;;;;;5108722;28;20063;-53
2020/12/19 11:32:35;;;;;;;39.13;26.38;;;7.30;79.80;;;;;;5093609;28;20707;-53
2020/12/19 11:35:01;;;;;;;37.58;26.52;;;7.10;80.00;;;;;;5093614;28;20024;-53
2020/12/19 11:37:27;;;;;;;41.38;27.98;;;7.00;80.80;;;;;;5093487;28;20387;-46
2020/12/19 11:39:54;;;;;;;41.40;29.20;;;;;;;;;;5093613;28;20028;-56
2020/12/19 11:42:22;;;;;;;33.97;23.88;;;7.00;81.00;;;;;;5093322;28;20356;-52
2020/12/19 11:44:48;;;;;;;39.10;25.50;;;7.00;81.50;;;;;;5093607;28;20020;-50
2020/12/19 11:47:13;;;;;;;35.85;23.98;;;6.90;81.70;;;;;;5093015;28;20533;-49
2020/12/19 11:49:39;;;;;;;41.03;27.55;;;6.90;82.20;;;;;;5093177;28;20032;-50
2020/12/19 11:52:09;;;;;;;40.05;26.52;;;7.00;81.80;;;;;;5090743;28;20641;-46
2020/12/19 11:54:36;;;;;;;40.45;26.63;;;7.00;81.40;;;;;;5090263;28;20043;-51
2020/12/19 11:57:03;;;;;;;41.20;27.98;;;7.00;81.40;;;;;;5091837;28;20031;-50
2020/12/19 11:59:28;;;;;;;41.00;26.98;;;7.00;82.00;;;;;;5110894;28;20065;-51
2020/12/19 12:01:54;;;;;;;41.42;28.70;;;7.10;82.10;;;;;;5060122;28;20039;-50
2020/12/19 12:04:20;;;;;;;42.22;28.02;;;6.90;81.80;;;;;;5060267;28;20100;-48
2020/12/19 12:06:46;;;;;;;40.42;27.05;;;7.00;82.10;;;;;;5060179;28;20128;-45
2020/12/19 12:09:12;;;;;;;42.08;28.27;;;7.00;81.00;;;;;;5110811;28;20032;-47
2020/12/19 12:11:38;;;;;;;39.53;26.88;;;6.90;82.10;;;;;;5110930;28;20043;-46
2020/12/19 12:14:04;;;;;;;43.33;28.50;;;6.90;81.20;;;;;;5110898;28;20057;-45
2020/12/19 12:16:30;;;;;;;44.30;28.90;;;7.00;82.20;;;;;;5110840;28;20057;-47
2020/12/19 12:18:57;;;;;;;41.85;28.02;;;7.10;80.70;;;;;;5111047;28;20444;-50
2020/12/19 12:21:23;;;;;;;47.60;30.75;;;7.20;80.90;;;;;;5060473;28;20044;-47
2020/12/19 12:23:50;;;;;;;47.60;31.40;;;7.10;80.70;;;;;;5093849;28;20495;-54
2020/12/19 12:26:25;;;;;;;43.33;29.17;;;7.30;81.20;;;;;;5111115;28;20043;-50
2020/12/19 12:28:51;;;;;;;48.17;30.27;;;7.20;80.10;;;;;;5111122;28;20052;-51
2020/12/19 12:31:24;;;;;;;51.70;34.15;;;7.30;80.40;;;;;;5057221;28;20044;-50
2020/12/19 12:33:50;;;;;;;68.05;40.22;;;7.40;81.30;;;;;;5107634;28;20042;-46
2020/12/19 12:36:16;;;;;;;54.55;34.70;;;7.50;81.00;;;;;;5093007;28;20047;-47
2020/12/19 12:38:42;;;;;;;56.75;34.30;;;7.50;80.20;;;;;;5093019;28;20089;-50
2020/12/19 12:41:07;;;;;;;54.85;35.00;;;7.40;80.10;;;;;;5093103;28;20040;-53